Time;durP1;ratioP1;P1;durP2;ratioP2;P2;SDS_P1;SDS_P2;PMS_P1;PMS_P2;Temp;Humidity;BMP_temperature;BMP_pressure;BME280_temperature;BME280_humidity;BME280_pressure;Samples;Min_cycle;Max_cycle;Signal;HPM_P1;HPM_P2
2021/05/30 00:00:52;;;;;;;6.70;6.00;;;9.20;99.90;;;;;;5012230;28;20792;-80
2021/05/30 00:03:18;;;;;;;6.63;6.03;;;9.20;99.90;;;;;;5001932;28;20303;-80
2021/05/30 00:05:45;;;;;;;9.73;7.93;;;9.20;99.90;;;;;;5012195;28;20279;-81
2021/05/30 00:08:14;;;;;;;8.17;6.00;;;9.10;99.90;;;;;;5010464;28;20204;-80
2021/05/30 00:10:40;;;;;;;7.40;6.27;;;9.10;99.90;;;;;;5004874;28;20216;-81
2021/05/30 00:13:06;;;;;;;9.07;7.03;;;9.10;99.90;;;;;;5007918;28;20733;-81
2021/05/30 00:15:33;;;;;;;11.20;7.47;;;9.00;99.90;;;;;;5005503;28;20248;-81
2021/05/30 00:17:59;;;;;;;10.57;7.17;;;8.90;99.90;;;;;;5001929;28;20698;-80
2021/05/30 00:20:26;;;;;;;9.87;6.77;;;8.80;99.90;;;;;;5010715;28;20200;-81
2021/05/30 00:22:52;;;;;;;7.70;6.90;;;8.80;99.90;;;;;;5011879;28;20215;-81
2021/05/30 00:25:19;;;;;;;10.17;8.93;;;8.70;99.90;;;;;;5013873;28;20763;-80
2021/05/30 00:27:45;;;;;;;10.30;9.30;;;8.60;99.90;;;;;;5011798;28;20574;-81
2021/05/30 00:30:13;;;;;;;10.10;9.20;;;8.60;99.90;;;;;;5012039;28;20214;-80
2021/05/30 00:32:39;;;;;;;9.80;8.90;;;8.50;99.90;;;;;;5012837;28;20193;-80
2021/05/30 00:35:06;;;;;;;9.23;8.33;;;8.50;99.90;;;;;;5011305;28;20224;-81
2021/05/30 00:37:33;;;;;;;9.10;8.30;;;8.50;99.90;;;;;;5011322;28;20772;-80
2021/05/30 00:39:59;;;;;;;8.83;8.03;;;8.50;99.90;;;;;;5011292;28;20207;-80
2021/05/30 00:42:26;;;;;;;9.80;8.80;;;8.40;99.90;;;;;;5012017;28;20218;-80
2021/05/30 00:44:52;;;;;;;9.80;8.80;;;8.40;99.90;;;;;;5014300;28;20203;-82
2021/05/30 00:47:19;;;;;;;9.60;8.70;;;8.40;99.90;;;;;;5015491;28;20201;-80
2021/05/30 00:49:45;;;;;;;10.40;9.33;;;8.40;99.90;;;;;;5012035;28;20557;-81
2021/05/30 00:52:11;;;;;;;10.90;9.90;;;8.30;99.90;;;;;;5012296;28;20651;-80
2021/05/30 00:54:38;;;;;;;11.60;10.50;;;8.30;99.90;;;;;;5011238;28;20214;-81
2021/05/30 00:57:06;;;;;;;11.40;10.30;;;8.30;99.90;;;;;;4999385;28;20734;-80
2021/05/30 00:59:34;;;;;;;11.40;10.30;;;8.20;99.90;;;;;;5003950;28;20296;-81
2021/05/30 01:02:00;;;;;;;12.90;10.33;;;8.20;99.90;;;;;;5011021;28;20700;-79
2021/05/30 01:04:27;;;;;;;11.10;9.87;;;8.20;99.90;;;;;;5011116;28;20240;-80
2021/05/30 01:06:55;;;;;;;11.73;10.60;;;8.20;99.90;;;;;;5008301;28;20221;-80
2021/05/30 01:09:24;;;;;;;12.07;10.40;;;8.10;99.90;;;;;;5008216;28;20198;-80
2021/05/30 01:11:51;;;;;;;11.97;10.77;;;8.10;99.90;;;;;;5012624;28;20186;-80
2021/05/30 01:14:18;;;;;;;12.13;10.73;;;8.10;99.90;;;;;;5010708;28;20214;-80
2021/05/30 01:16:46;;;;;;;12.23;10.57;;;8.00;99.90;;;;;;5011033;28;20223;-80
2021/05/30 01:19:13;;;;;;;12.77;11.20;;;8.00;99.90;;;;;;5004306;28;20702;-81
2021/05/30 01:21:43;;;;;;;12.50;11.20;;;8.00;99.90;;;;;;5012234;28;20670;-81
2021/05/30 01:24:11;;;;;;;11.50;10.30;;;8.00;99.90;;;;;;5011278;28;20198;-80
2021/05/30 01:26:39;;;;;;;13.30;11.33;;;7.90;99.90;;;;;;5010882;28;20240;-81
2021/05/30 01:29:05;;;;;;;12.93;10.83;;;8.00;99.90;;;;;;5010698;28;20562;-80
2021/05/30 01:31:32;;;;;;;11.67;10.47;;;8.00;99.90;;;;;;5005968;28;20236;-81
2021/05/30 01:33:58;;;;;;;15.07;11.47;;;7.90;99.90;;;;;;5012155;28;20194;-80
2021/05/30 01:36:24;;;;;;;11.20;10.10;;;7.90;99.90;;;;;;5010659;28;20216;-81
2021/05/30 01:38:51;;;;;;;10.43;9.43;;;7.90;99.90;;;;;;5010874;28;20202;-80
2021/05/30 01:41:18;;;;;;;10.63;9.50;;;7.90;99.90;;;;;;5010736;28;20199;-80
2021/05/30 01:43:44;;;;;;;10.07;9.07;;;7.80;99.90;;;;;;5015886;28;20218;-81
2021/05/30 01:46:10;;;;;;;10.20;9.20;;;7.80;99.90;;;;;;5014557;28;20219;-80
2021/05/30 01:48:37;;;;;;;9.90;8.90;;;7.80;99.90;;;;;;5014759;28;20210;-80
2021/05/30 01:51:04;;;;;;;9.63;8.77;;;7.80;99.90;;;;;;5014774;28;20268;-80
2021/05/30 01:53:35;;;;;;;9.90;9.00;;;7.70;99.90;;;;;;5016148;28;20192;-80
2021/05/30 01:58:47;;;;;;;9.97;9.00;;;7.70;99.90;;;;;;5008601;28;20211;-80
2021/05/30 02:01:15;;;;;;;11.33;9.37;;;7.60;99.90;;;;;;5016041;28;20190;-80
2021/05/30 02:03:44;;;;;;;10.17;9.20;;;7.60;99.90;;;;;;5014626;28;20221;-80
2021/05/30 02:06:10;;;;;;;10.53;9.27;;;7.50;99.90;;;;;;5015487;28;20223;-79
2021/05/30 02:08:39;;;;;;;10.10;8.97;;;7.50;99.90;;;;;;5014145;28;20210;-81
2021/05/30 02:11:09;;;;;;;10.80;9.63;;;7.40;99.90;;;;;;5015575;28;20210;-81
2021/05/30 02:13:35;;;;;;;10.80;9.80;;;7.40;99.90;;;;;;5013974;28;20254;-80
2021/05/30 02:16:04;;;;;;;10.07;9.00;;;7.40;99.90;;;;;;5009837;28;20720;-81
2021/05/30 02:18:31;;;;;;;9.97;9.00;;;7.40;99.90;;;;;;5013956;28;20674;-81
2021/05/30 02:20:57;;;;;;;9.90;9.00;;;7.30;99.90;;;;;;5015467;28;20271;-81
2021/05/30 02:23:24;;;;;;;9.73;8.70;;;7.40;99.90;;;;;;5014158;28;20222;-81
2021/05/30 02:25:50;;;;;;;10.07;9.17;;;7.30;99.90;;;;;;5009865;28;20237;-81
2021/05/30 02:28:16;;;;;;;9.43;8.63;;;7.30;99.90;;;;;;5003801;28;20197;-80
2021/05/30 02:30:43;;;;;;;9.97;9.10;;;7.20;99.90;;;;;;5015231;28;20189;-81
2021/05/30 02:33:10;;;;;;;9.40;8.50;;;7.20;99.90;;;;;;5013822;28;20256;-80
2021/05/30 02:35:36;;;;;;;9.23;8.43;;;7.20;99.90;;;;;;5013764;28;20221;-80
2021/05/30 02:38:04;;;;;;;9.80;8.73;;;7.20;99.90;;;;;;5013902;28;20260;-80
2021/05/30 02:40:30;;;;;;;9.90;8.90;;;7.10;99.90;;;;;;5008932;28;20740;-80
2021/05/30 02:42:57;;;;;;;10.00;9.00;;;7.10;99.90;;;;;;5011326;28;20748;-80
2021/05/30 02:45:23;;;;;;;9.57;8.77;;;7.10;99.90;;;;;;5014129;28;20649;-81
2021/05/30 02:47:49;;;;;;;9.43;8.50;;;7.00;99.90;;;;;;5015208;28;20197;-80
2021/05/30 02:50:17;;;;;;;9.70;8.80;;;6.90;99.90;;;;;;5013551;28;20215;-78
2021/05/30 02:52:43;;;;;;;11.60;9.50;;;6.90;99.90;;;;;;5012091;28;20237;-78
2021/05/30 02:55:10;;;;;;;9.53;8.63;;;6.90;99.90;;;;;;5014995;28;20260;-78
2021/05/30 02:57:37;;;;;;;10.13;9.23;;;7.00;99.90;;;;;;5012205;28;20248;-78
2021/05/30 03:00:05;;;;;;;9.33;8.50;;;7.00;99.90;;;;;;5029698;28;20560;-78
2021/05/30 03:02:32;;;;;;;9.80;8.80;;;7.00;99.90;;;;;;5014756;28;20229;-78
2021/05/30 03:04:58;;;;;;;10.67;9.67;;;6.90;99.90;;;;;;5017094;28;20277;-78
2021/05/30 03:07:25;;;;;;;9.47;8.53;;;6.90;99.90;;;;;;5001251;28;20666;-82
2021/05/30 03:09:52;;;;;;;13.00;9.10;;;6.90;99.90;;;;;;5006037;28;20216;-79
2021/05/30 03:12:18;;;;;;;9.77;8.70;;;6.90;99.90;;;;;;5013446;28;20620;-79
2021/05/30 03:14:44;;;;;;;9.80;9.00;;;6.80;99.90;;;;;;5009142;28;20201;-77
2021/05/30 03:17:11;;;;;;;10.73;9.83;;;6.80;99.90;;;;;;5014303;28;20189;-78
2021/05/30 03:19:38;;;;;;;9.93;9.00;;;6.80;99.90;;;;;;5013309;28;20213;-77
2021/05/30 03:22:04;;;;;;;9.10;8.30;;;6.80;99.90;;;;;;5012070;28;20271;-78
2021/05/30 03:24:34;;;;;;;9.67;8.77;;;6.80;99.90;;;;;;5016236;28;20211;-78
2021/05/30 03:27:00;;;;;;;8.87;8.17;;;6.80;99.90;;;;;;5041966;22;20232;-75
2021/05/30 03:29:26;;;;;;;9.03;8.23;;;6.80;99.90;;;;;;5047701;28;20200;-76
2021/05/30 03:31:53;;;;;;;9.13;8.30;;;6.90;99.90;;;;;;5048083;28;20891;-76
2021/05/30 03:34:19;;;;;;;9.40;8.60;;;6.90;99.90;;;;;;5033093;28;20689;-76
2021/05/30 03:36:52;;;;;;;9.40;8.57;;;6.90;99.90;;;;;;5024343;28;20225;-76
2021/05/30 03:39:18;;;;;;;9.30;8.40;;;6.90;99.90;;;;;;5024770;28;20204;-77
2021/05/30 03:41:52;;;;;;;8.70;8.00;;;6.80;99.90;;;;;;5014284;28;20201;-76
2021/05/30 03:44:19;;;;;;;9.13;8.33;;;6.90;99.90;;;;;;5021621;28;20198;-77
2021/05/30 03:46:45;;;;;;;10.20;9.17;;;6.90;99.90;;;;;;5019253;28;20270;-77
2021/05/30 03:49:12;;;;;;;9.47;8.57;;;6.90;99.90;;;;;;5021499;28;20671;-76
2021/05/30 03:51:38;;;;;;;11.33;8.87;;;6.90;99.90;;;;;;5014377;28;20712;-76
2021/05/30 03:54:05;;;;;;;9.33;8.37;;;6.90;99.90;;;;;;5023143;28;20189;-78
2021/05/30 03:56:32;;;;;;;9.60;8.70;;;7.00;99.90;;;;;;5034953;28;20225;-78
2021/05/30 03:58:59;;;;;;;9.30;8.50;;;6.90;99.90;;;;;;5023900;28;20209;-77
2021/05/30 04:01:25;;;;;;;9.70;8.90;;;7.00;99.90;;;;;;5020746;28;20202;-78
2021/05/30 04:03:51;;;;;;;9.33;8.53;;;7.00;99.90;;;;;;5015048;28;20249;-78
2021/05/30 04:06:18;;;;;;;9.90;8.90;;;7.10;99.90;;;;;;5016086;28;20615;-78
2021/05/30 04:08:46;;;;;;;9.10;8.30;;;7.10;99.90;;;;;;5015836;28;20250;-79
2021/05/30 04:11:13;;;;;;;9.80;8.90;;;7.10;99.90;;;;;;5032323;28;20210;-78
2021/05/30 04:13:39;;;;;;;9.03;8.27;;;7.10;99.90;;;;;;5014681;28;20201;-78
2021/05/30 04:16:06;;;;;;;8.47;7.77;;;7.20;99.90;;;;;;5018162;28;20229;-80
2021/05/30 04:18:33;;;;;;;8.47;7.77;;;7.30;99.90;;;;;;5004975;28;20210;-82
2021/05/30 04:20:59;;;;;;;8.97;8.20;;;7.30;99.90;;;;;;5013427;28;20205;-78
2021/05/30 04:23:25;;;;;;;8.53;7.83;;;7.30;99.90;;;;;;5025811;28;20217;-79
2021/05/30 04:25:52;;;;;;;8.80;8.10;;;7.30;99.90;;;;;;5020014;28;20726;-77
2021/05/30 04:28:19;;;;;;;9.13;8.43;;;7.40;99.90;;;;;;4991154;28;20203;-79
2021/05/30 04:30:45;;;;;;;8.97;8.27;;;7.40;99.90;;;;;;5005167;28;20592;-78
2021/05/30 04:33:12;;;;;;;8.90;8.13;;;7.50;99.90;;;;;;4993120;28;20207;-76
2021/05/30 04:35:39;;;;;;;9.00;8.30;;;7.60;99.90;;;;;;5013311;28;20229;-78
2021/05/30 04:38:05;;;;;;;9.10;8.40;;;7.70;99.90;;;;;;4996879;28;20202;-79
2021/05/30 04:40:31;;;;;;;8.93;8.13;;;7.80;99.90;;;;;;5009007;28;20193;-78
2021/05/30 04:42:58;;;;;;;8.30;7.60;;;7.90;99.90;;;;;;5000930;28;20217;-76
2021/05/30 04:45:24;;;;;;;8.17;7.47;;;8.10;99.90;;;;;;5005529;28;20204;-78
2021/05/30 04:47:51;;;;;;;8.27;7.57;;;8.40;99.90;;;;;;4996806;28;20248;-78
2021/05/30 04:50:18;;;;;;;6.63;5.87;;;8.70;99.90;;;;;;4990677;28;20588;-77
2021/05/30 04:52:44;;;;;;;5.70;5.20;;;8.90;99.90;;;;;;4991305;28;20247;-78
2021/05/30 04:55:12;;;;;;;5.30;4.80;;;9.00;99.90;;;;;;5003551;28;20233;-78
2021/05/30 04:57:39;;;;;;;6.43;5.20;;;9.30;99.90;;;;;;5002816;28;20564;-78
2021/05/30 05:00:08;;;;;;;5.53;5.03;;;9.40;99.90;;;;;;5018147;28;20189;-77
2021/05/30 05:02:35;;;;;;;5.13;4.63;;;9.40;99.90;;;;;;4991286;28;20221;-76
2021/05/30 05:05:01;;;;;;;5.93;5.37;;;9.60;99.90;;;;;;5012635;28;20188;-78
2021/05/30 05:07:28;;;;;;;6.00;5.50;;;9.70;99.90;;;;;;4997239;28;20231;-79
2021/05/30 05:09:55;;;;;;;5.20;4.70;;;9.80;99.90;;;;;;4999035;28;20677;-76
2021/05/30 05:12:21;;;;;;;5.50;5.00;;;9.90;99.90;;;;;;4994997;28;20677;-78
2021/05/30 05:14:48;;;;;;;4.73;4.20;;;10.00;99.90;;;;;;5001380;28;20568;-80
2021/05/30 05:17:14;;;;;;;4.50;3.90;;;10.30;99.90;;;;;;5012343;28;20216;-77
2021/05/30 05:19:41;;;;;;;4.43;3.90;;;10.50;99.90;;;;;;5001448;28;20211;-77
2021/05/30 05:22:08;;;;;;;5.53;5.03;;;10.70;99.90;;;;;;5007719;28;20192;-77
2021/05/30 05:24:35;;;;;;;5.93;5.33;;;10.70;99.90;;;;;;5017974;28;20203;-78
2021/05/30 05:27:01;;;;;;;6.87;4.70;;;10.90;99.90;;;;;;5016722;28;20231;-77
2021/05/30 05:29:27;;;;;;;5.00;4.47;;;10.90;99.90;;;;;;5005048;28;20696;-78
2021/05/30 05:31:54;;;;;;;5.90;4.63;;;11.10;99.90;;;;;;5000181;28;20232;-78
2021/05/30 05:34:20;;;;;;;5.70;4.67;;;11.10;99.90;;;;;;5019694;28;20255;-78
2021/05/30 05:36:47;;;;;;;5.10;3.67;;;11.40;99.90;;;;;;5016932;28;20218;-79
2021/05/30 05:39:13;;;;;;;3.83;3.47;;;11.80;99.90;;;;;;5019433;28;20277;-79
2021/05/30 05:41:41;;;;;;;5.57;4.83;;;12.30;99.90;;;;;;5018224;28;20569;-79
2021/05/30 05:44:07;;;;;;;5.30;4.80;;;13.00;99.90;;;;;;5004303;28;20223;-79
2021/05/30 05:46:33;;;;;;;5.50;4.50;;;13.50;99.90;;;;;;5003330;28;20219;-79
2021/05/30 05:49:00;;;;;;;6.57;4.97;;;14.20;99.90;;;;;;5003745;28;20208;-78
2021/05/30 05:51:26;;;;;;;5.17;4.67;;;14.70;99.90;;;;;;4980035;28;20205;-78
2021/05/30 05:53:53;;;;;;;5.50;5.00;;;15.20;99.90;;;;;;4986459;28;20574;-77
2021/05/30 05:56:19;;;;;;;5.30;4.80;;;15.70;99.90;;;;;;4996807;28;20225;-78
2021/05/30 05:58:46;;;;;;;5.60;4.80;;;15.90;99.90;;;;;;4997342;28;20199;-78
2021/05/30 06:01:13;;;;;;;5.07;4.60;;;16.60;99.90;;;;;;4990371;28;20203;-78
2021/05/30 06:03:39;;;;;;;4.80;4.40;;;17.10;99.90;;;;;;4979711;28;20761;-77
2021/05/30 06:06:06;;;;;;;5.43;4.93;;;17.40;99.90;;;;;;4997667;28;20209;-77
2021/05/30 06:08:32;;;;;;;5.10;4.47;;;17.20;99.90;;;;;;5001057;28;20203;-78
2021/05/30 06:10:59;;;;;;;4.23;3.90;;;17.30;99.90;;;;;;4990795;28;20211;-77
2021/05/30 06:13:25;;;;;;;4.90;4.50;;;17.60;99.90;;;;;;5002349;28;20200;-78
2021/05/30 06:15:53;;;;;;;5.20;4.70;;;17.90;99.90;;;;;;4993327;28;20227;-78
2021/05/30 06:18:22;;;;;;;6.33;5.73;;;17.80;99.90;;;;;;4991533;28;20215;-78
2021/05/30 06:20:48;;;;;;;3.53;2.80;;;17.60;99.90;;;;;;4993162;28;20251;-77
2021/05/30 06:23:16;;;;;;;4.53;4.23;;;17.90;99.90;;;;;;5012511;28;20337;-77
2021/05/30 06:25:43;;;;;;;7.90;5.07;;;17.80;99.90;;;;;;4983973;28;20232;-77
2021/05/30 06:28:10;;;;;;;5.43;5.00;;;17.40;99.90;;;;;;4984406;28;20216;-77
2021/05/30 06:30:38;;;;;;;7.17;6.57;;;17.40;99.90;;;;;;5016178;28;20206;-77
2021/05/30 06:33:06;;;;;;;9.63;7.17;;;17.50;99.90;;;;;;5021638;28;20679;-77
2021/05/30 06:35:33;;;;;;;8.10;7.50;;;17.70;99.90;;;;;;5012956;28;20449;-78
2021/05/30 06:38:01;;;;;;;7.70;7.00;;;17.80;99.90;;;;;;4999880;28;20200;-77
2021/05/30 06:40:27;;;;;;;7.20;6.70;;;17.90;99.90;;;;;;5019935;28;20204;-77
2021/05/30 06:42:53;;;;;;;7.33;6.83;;;18.10;99.90;;;;;;4998607;28;20267;-77
2021/05/30 06:45:20;;;;;;;7.77;7.07;;;18.30;99.90;;;;;;5024566;28;20194;-77
2021/05/30 06:47:46;;;;;;;7.90;7.20;;;18.40;99.90;;;;;;5028090;28;20208;-77
2021/05/30 06:50:14;;;;;;;7.60;7.03;;;18.70;99.90;;;;;;5017891;28;20213;-78
2021/05/30 06:52:40;;;;;;;7.80;7.20;;;18.90;99.90;;;;;;5001882;28;20214;-79
2021/05/30 06:55:08;;;;;;;6.80;6.30;;;19.10;99.90;;;;;;4987971;28;20577;-79
2021/05/30 06:57:34;;;;;;;6.70;6.00;;;19.40;99.90;;;;;;5024162;28;20670;-79
2021/05/30 07:00:01;;;;;;;6.73;6.03;;;19.70;99.90;;;;;;5025222;28;20201;-78
2021/05/30 07:02:27;;;;;;;6.57;6.07;;;19.70;99.90;;;;;;5019791;28;20244;-79
2021/05/30 07:04:53;;;;;;;7.20;6.60;;;19.90;99.90;;;;;;5015794;28;20666;-79
2021/05/30 07:07:20;;;;;;;7.30;6.70;;;19.80;99.90;;;;;;5020701;28;20596;-79
2021/05/30 07:09:47;;;;;;;7.63;6.93;;;19.60;99.90;;;;;;5002295;28;20275;-79
2021/05/30 07:12:13;;;;;;;7.23;6.73;;;19.60;99.90;;;;;;5020933;28;20203;-79
2021/05/30 07:14:40;;;;;;;6.80;6.20;;;19.60;99.90;;;;;;4998018;28;20216;-79
2021/05/30 07:17:06;;;;;;;6.80;6.30;;;20.00;99.90;;;;;;4996543;28;20258;-78
2021/05/30 07:19:33;;;;;;;7.00;6.50;;;20.60;99.90;;;;;;5021872;28;20663;-79
2021/05/30 07:21:59;;;;;;;7.97;7.27;;;20.60;99.90;;;;;;4982045;28;20207;-79
2021/05/30 07:24:26;;;;;;;7.07;6.57;;;20.50;99.90;;;;;;4998016;28;20224;-80
2021/05/30 07:26:52;;;;;;;7.43;6.83;;;20.70;99.90;;;;;;5017501;28;20228;-82
2021/05/30 07:29:19;;;;;;;6.70;6.10;;;21.00;99.90;;;;;;5020359;28;20270;-80
2021/05/30 07:31:47;;;;;;;7.73;7.03;;;20.90;99.90;;;;;;4997917;28;20200;-79
2021/05/30 07:34:14;;;;;;;6.73;6.23;;;20.90;99.90;;;;;;4989590;28;20288;-80
2021/05/30 07:36:40;;;;;;;7.00;6.50;;;20.90;99.90;;;;;;4980924;28;20217;-80
2021/05/30 07:39:07;;;;;;;7.00;6.37;;;21.10;99.90;;;;;;4999499;28;20204;-76
2021/05/30 07:41:34;;;;;;;7.33;6.63;;;21.50;99.90;;;;;;5010388;28;20196;-77
2021/05/30 07:44:01;;;;;;;7.20;6.70;;;21.60;99.90;;;;;;5014162;28;20726;-77
2021/05/30 07:46:28;;;;;;;6.97;6.47;;;21.70;99.90;;;;;;5015849;28;20219;-77
2021/05/30 07:48:54;;;;;;;6.90;6.40;;;21.70;99.90;;;;;;5022163;28;20192;-77
2021/05/30 07:51:21;;;;;;;7.40;6.90;;;21.30;99.90;;;;;;4989684;28;20197;-78
2021/05/30 07:53:48;;;;;;;6.83;6.33;;;21.60;99.90;;;;;;4997692;28;20696;-78
2021/05/30 07:56:14;;;;;;;6.90;6.40;;;21.60;99.90;;;;;;5006942;28;20221;-77
2021/05/30 07:58:41;;;;;;;7.00;6.40;;;21.70;99.80;;;;;;5018511;28;20741;-77
2021/05/30 08:01:08;;;;;;;6.77;6.27;;;22.10;98.80;;;;;;4988864;28;20634;-77
2021/05/30 08:03:34;;;;;;;6.50;6.00;;;22.10;97.10;;;;;;5017316;28;20215;-77
2021/05/30 08:06:01;;;;;;;6.87;6.20;;;22.50;97.60;;;;;;4999735;28;20228;-79
2021/05/30 08:08:27;;;;;;;7.57;6.93;;;22.60;96.20;;;;;;4998203;28;20223;-79
2021/05/30 08:10:53;;;;;;;6.40;5.93;;;22.60;94.80;;;;;;4988119;28;20204;-79
2021/05/30 08:13:20;;;;;;;7.00;6.40;;;22.80;92.70;;;;;;4996480;28;20201;-81
2021/05/30 08:15:47;;;;;;;6.67;6.10;;;22.80;88.10;;;;;;4997368;28;20224;-82
2021/05/30 08:18:13;;;;;;;6.47;6.03;;;22.50;90.00;;;;;;5020352;28;20218;-77
2021/05/30 08:20:40;;;;;;;6.33;5.87;;;21.60;83.70;;;;;;5004246;28;20205;-77
2021/05/30 08:23:07;;;;;;;6.27;5.77;;;22.10;82.90;;;;;;4987632;28;20251;-77
2021/05/30 08:25:33;;;;;;;5.87;5.50;;;21.60;81.80;;;;;;4999847;28;20228;-77
2021/05/30 08:28:00;;;;;;;5.97;5.57;;;21.90;80.50;;;;;;4988004;28;20211;-78
2021/05/30 08:30:27;;;;;;;5.87;5.43;;;22.20;80.60;;;;;;4995835;28;20208;-78
2021/05/30 08:32:54;;;;;;;6.00;5.60;;;22.10;82.30;;;;;;4996148;28;20189;-77
2021/05/30 08:35:21;;;;;;;6.23;5.63;;;22.50;81.60;;;;;;4994793;28;20670;-78
2021/05/30 08:37:47;;;;;;;6.23;5.83;;;22.80;78.60;;;;;;4984074;28;20201;-77
2021/05/30 08:40:15;;;;;;;7.23;5.60;;;22.40;77.20;;;;;;5005485;28;20202;-77
2021/05/30 08:42:44;;;;;;;5.97;5.57;;;22.50;76.60;;;;;;5023751;28;20261;-78
2021/05/30 08:45:11;;;;;;;6.20;5.80;;;22.00;81.00;;;;;;4994744;28;20452;-80
2021/05/30 08:47:37;;;;;;;6.20;5.60;;;22.50;81.80;;;;;;5011453;28;20196;-80
2021/05/30 08:50:05;;;;;;;6.03;5.63;;;22.30;78.70;;;;;;4993303;28;20197;-80
2021/05/30 08:52:33;;;;;;;5.77;5.37;;;22.20;78.10;;;;;;4997014;28;20205;-80
2021/05/30 08:55:00;;;;;;;6.10;5.60;;;22.20;78.00;;;;;;4998232;28;20214;-80
2021/05/30 08:57:27;;;;;;;5.67;5.17;;;21.70;76.10;;;;;;4999900;28;20215;-80
2021/05/30 08:59:55;;;;;;;5.60;5.20;;;21.50;79.10;;;;;;4997155;28;20268;-79
2021/05/30 09:02:22;;;;;;;5.80;5.30;;;21.70;80.10;;;;;;5008898;28;20682;-80
2021/05/30 09:04:51;;;;;;;6.10;5.60;;;21.90;78.80;;;;;;5000762;28;20250;-79
2021/05/30 09:07:18;;;;;;;5.53;5.13;;;22.30;77.40;;;;;;5017228;28;20712;-80
2021/05/30 09:09:46;;;;;;;5.53;5.07;;;23.00;78.60;;;;;;4998800;28;20654;-80
2021/05/30 09:12:25;;;;;;;6.20;5.80;;;23.30;80.80;;;;;;5007066;28;20578;-79
2021/05/30 09:14:54;;;;;;;6.90;6.40;;;23.60;77.50;;;;;;5013465;28;20227;-79
2021/05/30 09:17:25;;;;;;;6.60;6.10;;;23.70;81.00;;;;;;4993968;28;20670;-79
2021/05/30 09:19:52;;;;;;;6.00;5.50;;;23.10;78.00;;;;;;5013266;28;20580;-79
2021/05/30 09:22:30;;;;;;;6.10;5.70;;;23.20;77.80;;;;;;4988511;28;20231;-81
2021/05/30 09:25:20;;;;;;;6.17;5.67;;;23.30;78.50;;;;;;5020944;28;20229;-81
2021/05/30 09:35:52;;;;;;;5.33;4.83;;;23.30;74.30;;;;;;4960714;29;20202;-81
2021/05/30 09:38:23;;;;;;;6.77;5.73;;;23.40;76.70;;;;;;4935233;29;20674;-79
2021/05/30 09:40:52;;;;;;;5.90;5.40;;;24.00;78.10;;;;;;4922924;28;20203;-79
2021/05/30 09:43:23;;;;;;;5.20;4.80;;;23.80;78.00;;;;;;4994135;28;20349;-79
2021/05/30 09:46:02;;;;;;;5.73;5.23;;;23.40;75.00;;;;;;4992551;28;20193;-78
2021/05/30 09:48:29;;;;;;;6.23;5.40;;;22.80;77.90;;;;;;4987990;28;20252;-79
2021/05/30 09:51:04;;;;;;;5.73;5.23;;;22.90;75.40;;;;;;5012046;28;20201;-78
2021/05/30 09:53:51;;;;;;;5.83;5.23;;;23.10;77.40;;;;;;5015515;28;20195;-79
2021/05/30 09:56:39;;;;;;;6.00;5.40;;;22.80;73.80;;;;;;4994552;28;20700;-79
2021/05/30 09:59:09;;;;;;;9.00;5.87;;;22.40;76.50;;;;;;5005920;28;20196;-79
2021/05/30 10:01:52;;;;;;;5.50;5.10;;;21.80;81.70;;;;;;4983914;28;20295;-80
2021/05/30 10:04:22;;;;;;;5.87;5.30;;;22.30;78.10;;;;;;5013167;28;20220;-79
2021/05/30 10:06:52;;;;;;;5.77;5.27;;;22.40;78.80;;;;;;5012582;28;20220;-78
2021/05/30 10:09:24;;;;;;;5.80;5.30;;;22.40;81.90;;;;;;5003558;28;20201;-78
2021/05/30 10:11:51;;;;;;;5.80;5.30;;;22.40;80.30;;;;;;5014918;28;20207;-79
2021/05/30 10:14:18;;;;;;;5.27;4.83;;;22.40;78.90;;;;;;5002802;28;20193;-79
2021/05/30 10:16:45;;;;;;;5.40;5.03;;;21.50;79.80;;;;;;4993866;28;20231;-78
2021/05/30 10:19:15;;;;;;;5.53;5.23;;;21.40;80.90;;;;;;4995883;28;20229;-78
2021/05/30 10:21:45;;;;;;;5.90;5.30;;;21.60;80.40;;;;;;4997032;28;20220;-79
2021/05/30 10:24:12;;;;;;;6.03;5.27;;;22.00;81.70;;;;;;4998942;28;20243;-78
2021/05/30 10:26:40;;;;;;;5.60;5.20;;;22.30;80.70;;;;;;5017248;28;20693;-78
2021/05/30 10:29:12;;;;;;;2.83;2.47;;;22.90;80.10;;;;;;5000014;28;20196;-78
2021/05/30 10:31:39;;;;;;;6.07;5.60;;;23.00;79.30;;;;;;4993525;28;20291;-78
2021/05/30 10:34:18;;;;;;;2.50;2.30;;;23.00;77.60;;;;;;5015260;28;20188;-78
2021/05/30 10:37:07;;;;;;;8.13;7.43;;;23.30;80.50;;;;;;4998682;28;20286;-78
2021/05/30 10:39:41;;;;;;;8.90;8.30;;;22.50;81.20;;;;;;5011677;28;20193;-79
2021/05/30 10:42:16;;;;;;;5.20;4.80;;;22.40;81.60;;;;;;5011079;28;20566;-78
2021/05/30 10:44:58;;;;;;;5.53;5.13;;;22.00;81.70;;;;;;4997179;28;20216;-79
2021/05/30 10:48:16;;;;;;;6.17;5.57;;;21.40;81.10;;;;;;4993884;28;20220;-78
2021/05/30 10:50:53;;;;;;;6.07;5.57;;;20.80;79.00;;;;;;5023781;28;20195;-78
2021/05/30 10:53:35;;;;;;;5.83;5.43;;;20.40;82.40;;;;;;5021555;28;20199;-78
2021/05/30 10:56:21;;;;;;;6.20;5.70;;;20.40;82.60;;;;;;4995264;28;20198;-77
2021/05/30 10:59:31;;;;;;;4.43;4.07;;;20.40;80.60;;;;;;4987804;28;20201;-78
2021/05/30 11:02:04;;;;;;;6.87;4.97;;;20.50;81.30;;;;;;5008979;28;20209;-78
2021/05/30 11:04:33;;;;;;;7.23;6.73;;;20.70;83.60;;;;;;4993789;28;20225;-77
2021/05/30 11:07:02;;;;;;;6.43;5.20;;;20.70;81.80;;;;;;4993017;28;20214;-77
2021/05/30 11:10:09;;;;;;;4.33;4.03;;;20.50;77.20;;;;;;5006818;28;20260;-77
2021/05/30 11:16:58;;;;;;;5.43;5.00;;;20.60;78.30;;;;;;4868575;29;20705;-77
2021/05/30 11:20:11;;;;;;;7.07;6.47;;;20.40;77.70;;;;;;4844896;29;20202;-78
2021/05/30 11:23:25;;;;;;;8.00;7.40;;;20.60;79.10;;;;;;4817822;29;20219;-80
2021/05/30 11:29:48;;;;;;;4.70;4.40;;;20.50;78.30;;;;;;4898136;28;20378;-79
2021/05/30 11:33:15;;;;;;;3.20;2.93;;;20.30;80.00;;;;;;4972823;28;20198;-80
2021/05/30 11:39:51;;;;;;;4.13;2.90;;;20.50;80.50;;;;;;5034707;28;20173;-79
2021/05/30 11:43:06;;;;;;;;;;;;;;;;;;;;;
2021/05/30 11:45:43;;;;;;;7.10;6.60;;;20.50;80.60;;;;;;5002426;28;21013;-79
2021/05/30 11:48:29;;;;;;;5.83;5.43;;;20.30;80.60;;;;;;5017184;28;20599;-79
2021/05/30 11:55:31;;;;;;;5.73;5.33;;;20.10;81.00;;;;;;5017637;28;20228;-79
2021/05/30 12:02:08;;;;;;;;;;;;;;;;;;;;;
2021/05/30 12:05:14;;;;;;;6.17;5.67;;;19.70;82.70;;;;;;5002655;28;20251;-80
2021/05/30 12:46:10;;;;;;;4.57;3.37;;;20.00;84.10;;;;;;4930567;28;20215;-80
2021/05/30 12:49:03;;;;;;;4.53;2.93;;;19.80;85.10;;;;;;5003605;28;20215;-81
2021/05/30 12:51:56;;;;;;;3.90;3.60;;;20.20;84.10;;;;;;4992815;28;20664;-80
2021/05/30 12:54:29;;;;;;;4.00;2.87;;;20.70;84.30;;;;;;5013266;28;20206;-78
2021/05/30 12:56:56;;;;;;;3.63;2.97;;;20.70;81.80;;;;;;5007683;28;20227;-81
2021/05/30 12:59:25;;;;;;;2.53;2.33;;;20.30;81.30;;;;;;5012552;28;20316;-81
2021/05/30 13:01:53;;;;;;;3.13;2.50;;;20.10;83.70;;;;;;5013559;28;20208;-81
2021/05/30 13:04:31;;;;;;;5.20;4.70;;;19.90;84.50;;;;;;5013074;28;20212;-81
2021/05/30 13:07:06;;;;;;;5.73;5.23;;;19.70;84.90;;;;;;5013763;28;20227;-81
2021/05/30 13:09:50;;;;;;;5.40;5.00;;;19.70;85.60;;;;;;5010295;28;20328;-81
2021/05/30 13:12:39;;;;;;;3.57;3.23;;;19.90;85.30;;;;;;5012655;28;20209;-81
2021/05/30 13:15:08;;;;;;;4.10;3.70;;;20.00;83.20;;;;;;5009598;28;20572;-81
2021/05/30 13:17:36;;;;;;;4.33;3.93;;;20.00;83.50;;;;;;5014025;28;20763;-80
2021/05/30 13:20:12;;;;;;;4.07;3.27;;;20.00;83.10;;;;;;5010590;28;20233;-82
2021/05/30 13:22:51;;;;;;;3.43;3.13;;;20.20;85.20;;;;;;4999559;28;20721;-81
2021/05/30 13:25:40;;;;;;;4.47;4.00;;;20.30;84.80;;;;;;5012934;28;20196;-82
2021/05/30 13:28:19;;;;;;;4.13;3.53;;;20.20;80.90;;;;;;5007999;28;20287;-81
2021/05/30 13:30:47;;;;;;;3.77;3.37;;;20.50;83.00;;;;;;5011616;28;20247;-81
2021/05/30 13:33:15;;;;;;;4.53;3.57;;;20.80;84.80;;;;;;4996982;28;20198;-81
2021/05/30 13:35:41;;;;;;;4.73;4.03;;;20.80;82.70;;;;;;4990590;28;20215;-80
2021/05/30 13:38:08;;;;;;;3.83;3.43;;;20.70;80.00;;;;;;4996562;28;20762;-80
2021/05/30 13:40:37;;;;;;;4.63;3.50;;;20.60;81.20;;;;;;5018863;28;20715;-80
2021/05/30 13:43:04;;;;;;;3.97;3.57;;;20.50;83.60;;;;;;4996819;28;20798;-80
2021/05/30 13:45:31;;;;;;;3.70;3.40;;;20.60;80.10;;;;;;4998322;28;20235;-80
2021/05/30 13:47:57;;;;;;;5.27;3.27;;;20.60;78.90;;;;;;5011709;28;20223;-81
2021/05/30 13:50:24;;;;;;;5.57;3.40;;;20.60;81.90;;;;;;5015218;28;20202;-80
2021/05/30 13:52:51;;;;;;;4.53;3.50;;;20.40;83.10;;;;;;5016174;28;20198;-80
2021/05/30 13:55:17;;;;;;;6.03;5.53;;;20.00;83.90;;;;;;5017890;28;20618;-81
2021/05/30 13:57:44;;;;;;;5.63;5.13;;;19.80;85.20;;;;;;5017953;28;20218;-81
2021/05/30 14:00:11;;;;;;;5.80;5.30;;;19.90;85.50;;;;;;4997400;28;20276;-80
2021/05/30 14:02:39;;;;;;;6.10;5.60;;;19.80;84.50;;;;;;5016216;28;20197;-79
2021/05/30 14:05:06;;;;;;;5.70;5.17;;;19.60;81.50;;;;;;5015082;28;20251;-81
2021/05/30 14:07:33;;;;;;;4.07;3.30;;;19.70;80.70;;;;;;5013020;28;20214;-80
2021/05/30 14:10:00;;;;;;;3.37;2.97;;;19.90;83.90;;;;;;5016087;28;20203;-80
2021/05/30 14:12:26;;;;;;;3.60;3.30;;;20.20;81.50;;;;;;5016339;28;20633;-80